sensor_id;sensor_type;location;lat;lon;timestamp;temperature;humidity
16158;DHT22;8184;60.256;18.694;2023-07-20T00:01:56;14.40;99.90
16158;DHT22;8184;60.256;18.694;2023-07-20T00:04:24;14.50;99.90
16158;DHT22;8184;60.256;18.694;2023-07-20T00:06:52;14.40;99.90
16158;DHT22;8184;60.256;18.694;2023-07-20T00:09:20;14.40;99.90
16158;DHT22;8184;60.256;18.694;2023-07-20T00:11:52;14.40;99.90
16158;DHT22;8184;60.256;18.694;2023-07-20T00:14:21;14.30;99.90
16158;DHT22;8184;60.256;18.694;2023-07-20T00:16:50;14.40;99.90
16158;DHT22;8184;60.256;18.694;2023-07-20T00:19:23;14.50;99.90
16158;DHT22;8184;60.256;18.694;2023-07-20T00:21:51;14.40;99.90
16158;DHT22;8184;60.256;18.694;2023-07-20T00:24:19;14.30;99.90
16158;DHT22;8184;60.256;18.694;2023-07-20T00:26:48;14.30;99.90
16158;DHT22;8184;60.256;18.694;2023-07-20T00:29:22;14.40;99.90
16158;DHT22;8184;60.256;18.694;2023-07-20T00:31:51;14.30;99.90
16158;DHT22;8184;60.256;18.694;2023-07-20T00:34:19;14.40;99.90
16158;DHT22;8184;60.256;18.694;2023-07-20T00:36:48;14.20;99.90
16158;DHT22;8184;60.256;18.694;2023-07-20T00:39:16;14.30;99.90
16158;DHT22;8184;60.256;18.694;2023-07-20T00:41:44;14.20;99.90
16158;DHT22;8184;60.256;18.694;2023-07-20T00:44:13;14.30;99.90
16158;DHT22;8184;60.256;18.694;2023-07-20T00:46:42;14.30;99.90
16158;DHT22;8184;60.256;18.694;2023-07-20T00:49:12;14.10;99.90
16158;DHT22;8184;60.256;18.694;2023-07-20T00:51:40;14.20;99.90
16158;DHT22;8184;60.256;18.694;2023-07-20T00:54:09;14.10;99.90
16158;DHT22;8184;60.256;18.694;2023-07-20T00:56:37;14.20;99.90
16158;DHT22;8184;60.256;18.694;2023-07-20T00:59:06;14.20;99.90
16158;DHT22;8184;60.256;18.694;2023-07-20T01:01:34;14.20;99.90
16158;DHT22;8184;60.256;18.694;2023-07-20T01:04:02;14.20;99.90
16158;DHT22;8184;60.256;18.694;2023-07-20T01:06:36;14.30;99.90
16158;DHT22;8184;60.256;18.694;2023-07-20T01:09:14;14.10;99.90
16158;DHT22;8184;60.256;18.694;2023-07-20T01:11:47;14.20;99.90
16158;DHT22;8184;60.256;18.694;2023-07-20T01:14:19;14.20;99.90
16158;DHT22;8184;60.256;18.694;2023-07-20T01:16:48;14.10;99.90
16158;DHT22;8184;60.256;18.694;2023-07-20T01:19:22;14.00;99.90
16158;DHT22;8184;60.256;18.694;2023-07-20T01:21:53;14.10;99.90
16158;DHT22;8184;60.256;18.694;2023-07-20T01:32:57;14.00;99.90
16158;DHT22;8184;60.256;18.694;2023-07-20T01:35:27;13.90;99.90
16158;DHT22;8184;60.256;18.694;2023-07-20T01:37:56;13.90;99.90
16158;DHT22;8184;60.256;18.694;2023-07-20T01:40:25;13.80;99.90
16158;DHT22;8184;60.256;18.694;2023-07-20T01:42:53;13.80;99.90
16158;DHT22;8184;60.256;18.694;2023-07-20T01:45:23;13.80;99.90
16158;DHT22;8184;60.256;18.694;2023-07-20T01:47:51;14.00;99.90
16158;DHT22;8184;60.256;18.694;2023-07-20T01:50:21;14.00;99.90
16158;DHT22;8184;60.256;18.694;2023-07-20T01:52:49;14.10;99.90
16158;DHT22;8184;60.256;18.694;2023-07-20T01:55:17;14.00;99.90
16158;DHT22;8184;60.256;18.694;2023-07-20T01:57:45;14.00;99.90
16158;DHT22;8184;60.256;18.694;2023-07-20T02:00:13;14.00;99.90
16158;DHT22;8184;60.256;18.694;2023-07-20T02:02:42;14.00;99.90
16158;DHT22;8184;60.256;18.694;2023-07-20T02:05:10;14.00;99.90
16158;DHT22;8184;60.256;18.694;2023-07-20T02:07:43;14.00;99.90
16158;DHT22;8184;60.256;18.694;2023-07-20T02:10:11;14.00;99.90
16158;DHT22;8184;60.256;18.694;2023-07-20T02:12:39;14.00;99.90
16158;DHT22;8184;60.256;18.694;2023-07-20T02:15:10;14.00;99.90
16158;DHT22;8184;60.256;18.694;2023-07-20T02:17:40;14.00;99.90
16158;DHT22;8184;60.256;18.694;2023-07-20T02:20:08;14.00;99.90
16158;DHT22;8184;60.256;18.694;2023-07-20T02:22:37;14.00;99.90
16158;DHT22;8184;60.256;18.694;2023-07-20T02:25:07;14.00;99.90
16158;DHT22;8184;60.256;18.694;2023-07-20T02:27:35;14.00;99.90
16158;DHT22;8184;60.256;18.694;2023-07-20T02:30:04;14.00;99.90
16158;DHT22;8184;60.256;18.694;2023-07-20T02:32:33;13.90;99.90
16158;DHT22;8184;60.256;18.694;2023-07-20T02:35:02;14.00;99.90
16158;DHT22;8184;60.256;18.694;2023-07-20T02:37:30;14.00;99.90
16158;DHT22;8184;60.256;18.694;2023-07-20T02:39:59;13.80;99.90
16158;DHT22;8184;60.256;18.694;2023-07-20T02:42:29;13.90;99.90
16158;DHT22;8184;60.256;18.694;2023-07-20T02:44:58;13.90;99.90
16158;DHT22;8184;60.256;18.694;2023-07-20T02:47:26;13.80;99.90
16158;DHT22;8184;60.256;18.694;2023-07-20T02:49:54;13.90;99.90
16158;DHT22;8184;60.256;18.694;2023-07-20T02:52:22;13.80;99.90
16158;DHT22;8184;60.256;18.694;2023-07-20T02:54:51;13.80;99.90
16158;DHT22;8184;60.256;18.694;2023-07-20T02:57:19;13.80;99.90
16158;DHT22;8184;60.256;18.694;2023-07-20T02:59:49;13.80;99.90
16158;DHT22;8184;60.256;18.694;2023-07-20T03:02:17;13.90;99.90
16158;DHT22;8184;60.256;18.694;2023-07-20T03:04:45;13.80;99.90
16158;DHT22;8184;60.256;18.694;2023-07-20T03:07:15;13.90;99.90
16158;DHT22;8184;60.256;18.694;2023-07-20T03:09:46;13.90;99.90
16158;DHT22;8184;60.256;18.694;2023-07-20T03:12:15;13.80;99.90
16158;DHT22;8184;60.256;18.694;2023-07-20T03:14:43;13.90;99.90
16158;DHT22;8184;60.256;18.694;2023-07-20T03:17:12;13.90;99.90
16158;DHT22;8184;60.256;18.694;2023-07-20T03:19:41;13.90;99.90
16158;DHT22;8184;60.256;18.694;2023-07-20T03:22:10;13.80;99.90
16158;DHT22;8184;60.256;18.694;2023-07-20T03:24:38;13.80;99.90
16158;DHT22;8184;60.256;18.694;2023-07-20T03:27:07;13.90;99.90
16158;DHT22;8184;60.256;18.694;2023-07-20T03:29:35;13.90;99.90
16158;DHT22;8184;60.256;18.694;2023-07-20T03:32:04;13.90;99.90
16158;DHT22;8184;60.256;18.694;2023-07-20T03:34:33;13.90;99.90
16158;DHT22;8184;60.256;18.694;2023-07-20T03:37:01;14.00;99.90
16158;DHT22;8184;60.256;18.694;2023-07-20T03:39:31;13.90;99.90
16158;DHT22;8184;60.256;18.694;2023-07-20T03:41:59;13.90;99.90
16158;DHT22;8184;60.256;18.694;2023-07-20T03:44:27;14.00;99.90
16158;DHT22;8184;60.256;18.694;2023-07-20T03:46:56;13.90;99.90
16158;DHT22;8184;60.256;18.694;2023-07-20T03:49:24;14.00;99.90
16158;DHT22;8184;60.256;18.694;2023-07-20T03:51:54;14.00;99.90
16158;DHT22;8184;60.256;18.694;2023-07-20T03:54:22;13.90;99.90
16158;DHT22;8184;60.256;18.694;2023-07-20T03:56:50;13.80;99.90
16158;DHT22;8184;60.256;18.694;2023-07-20T03:59:18;13.80;99.90
16158;DHT22;8184;60.256;18.694;2023-07-20T04:01:47;14.00;99.90
16158;DHT22;8184;60.256;18.694;2023-07-20T04:04:16;14.00;99.90
16158;DHT22;8184;60.256;18.694;2023-07-20T04:06:44;14.00;99.90
16158;DHT22;8184;60.256;18.694;2023-07-20T04:09:14;14.00;99.90
16158;DHT22;8184;60.256;18.694;2023-07-20T04:11:42;14.00;99.90
16158;DHT22;8184;60.256;18.694;2023-07-20T04:14:10;14.00;99.90
16158;DHT22;8184;60.256;18.694;2023-07-20T04:16:38;14.00;99.90
16158;DHT22;8184;60.256;18.694;2023-07-20T04:19:08;13.80;99.90
16158;DHT22;8184;60.256;18.694;2023-07-20T04:21:39;13.90;99.90
16158;DHT22;8184;60.256;18.694;2023-07-20T04:24:07;14.00;99.90
16158;DHT22;8184;60.256;18.694;2023-07-20T04:26:37;14.20;99.90
16158;DHT22;8184;60.256;18.694;2023-07-20T04:29:05;14.20;99.90
16158;DHT22;8184;60.256;18.694;2023-07-20T04:31:33;14.20;99.90
16158;DHT22;8184;60.256;18.694;2023-07-20T04:34:02;14.20;99.90
16158;DHT22;8184;60.256;18.694;2023-07-20T04:36:30;14.10;99.90
16158;DHT22;8184;60.256;18.694;2023-07-20T04:38:58;14.20;99.90
16158;DHT22;8184;60.256;18.694;2023-07-20T04:41:26;14.10;99.90
16158;DHT22;8184;60.256;18.694;2023-07-20T04:43:55;14.10;99.90
16158;DHT22;8184;60.256;18.694;2023-07-20T04:46:24;14.20;99.90
16158;DHT22;8184;60.256;18.694;2023-07-20T04:48:52;14.10;99.90
16158;DHT22;8184;60.256;18.694;2023-07-20T04:51:21;14.10;99.90
16158;DHT22;8184;60.256;18.694;2023-07-20T04:53:49;14.00;99.90
16158;DHT22;8184;60.256;18.694;2023-07-20T04:56:17;14.00;99.90
16158;DHT22;8184;60.256;18.694;2023-07-20T04:58:45;14.20;99.90
16158;DHT22;8184;60.256;18.694;2023-07-20T05:01:14;14.30;99.90
16158;DHT22;8184;60.256;18.694;2023-07-20T05:03:43;14.20;99.90
16158;DHT22;8184;60.256;18.694;2023-07-20T05:06:11;14.40;99.90
16158;DHT22;8184;60.256;18.694;2023-07-20T05:08:40;14.50;99.90
16158;DHT22;8184;60.256;18.694;2023-07-20T05:11:08;14.40;99.90
16158;DHT22;8184;60.256;18.694;2023-07-20T05:13:39;14.40;99.90
16158;DHT22;8184;60.256;18.694;2023-07-20T05:16:07;14.30;99.90
16158;DHT22;8184;60.256;18.694;2023-07-20T05:18:37;14.30;99.90
16158;DHT22;8184;60.256;18.694;2023-07-20T05:21:05;14.30;99.90
16158;DHT22;8184;60.256;18.694;2023-07-20T05:23:33;14.40;99.90
16158;DHT22;8184;60.256;18.694;2023-07-20T05:26:01;14.50;99.90
16158;DHT22;8184;60.256;18.694;2023-07-20T05:28:30;14.50;99.90
16158;DHT22;8184;60.256;18.694;2023-07-20T05:30:58;14.50;99.90
16158;DHT22;8184;60.256;18.694;2023-07-20T05:33:26;14.60;99.90
16158;DHT22;8184;60.256;18.694;2023-07-20T05:35:56;14.70;99.90
16158;DHT22;8184;60.256;18.694;2023-07-20T05:38:24;14.60;99.90
16158;DHT22;8184;60.256;18.694;2023-07-20T05:40:58;14.70;99.90
16158;DHT22;8184;60.256;18.694;2023-07-20T05:43:28;14.80;99.90
16158;DHT22;8184;60.256;18.694;2023-07-20T05:45:57;14.80;99.90
16158;DHT22;8184;60.256;18.694;2023-07-20T05:48:26;14.90;99.90
16158;DHT22;8184;60.256;18.694;2023-07-20T05:50:54;14.90;99.90
16158;DHT22;8184;60.256;18.694;2023-07-20T05:53:24;15.00;99.90
16158;DHT22;8184;60.256;18.694;2023-07-20T05:55:53;15.20;99.90
16158;DHT22;8184;60.256;18.694;2023-07-20T05:58:21;15.40;99.90
16158;DHT22;8184;60.256;18.694;2023-07-20T06:00:50;15.40;99.90
16158;DHT22;8184;60.256;18.694;2023-07-20T06:03:18;15.40;99.90
16158;DHT22;8184;60.256;18.694;2023-07-20T06:05:48;15.30;99.90
16158;DHT22;8184;60.256;18.694;2023-07-20T06:08:16;15.40;99.90
16158;DHT22;8184;60.256;18.694;2023-07-20T06:10:49;15.40;99.90
16158;DHT22;8184;60.256;18.694;2023-07-20T06:13:17;15.40;99.90
16158;DHT22;8184;60.256;18.694;2023-07-20T06:15:45;15.40;99.90
16158;DHT22;8184;60.256;18.694;2023-07-20T06:18:14;15.60;99.90
16158;DHT22;8184;60.256;18.694;2023-07-20T06:20:44;15.60;99.90
16158;DHT22;8184;60.256;18.694;2023-07-20T06:23:16;15.70;99.90
16158;DHT22;8184;60.256;18.694;2023-07-20T06:25:45;15.50;99.90
16158;DHT22;8184;60.256;18.694;2023-07-20T06:28:13;15.50;99.90
16158;DHT22;8184;60.256;18.694;2023-07-20T06:30:42;15.70;99.90
16158;DHT22;8184;60.256;18.694;2023-07-20T06:33:10;15.60;99.90
16158;DHT22;8184;60.256;18.694;2023-07-20T06:35:41;15.60;99.90
16158;DHT22;8184;60.256;18.694;2023-07-20T06:38:09;15.80;99.90
16158;DHT22;8184;60.256;18.694;2023-07-20T06:40:40;15.70;99.90
16158;DHT22;8184;60.256;18.694;2023-07-20T06:43:10;15.70;99.90
16158;DHT22;8184;60.256;18.694;2023-07-20T06:45:41;15.90;99.90
16158;DHT22;8184;60.256;18.694;2023-07-20T06:48:10;16.00;99.90
16158;DHT22;8184;60.256;18.694;2023-07-20T06:50:42;15.60;99.90
16158;DHT22;8184;60.256;18.694;2023-07-20T06:53:10;16.10;99.90
16158;DHT22;8184;60.256;18.694;2023-07-20T06:55:38;16.20;99.90
16158;DHT22;8184;60.256;18.694;2023-07-20T06:58:09;16.30;99.90
16158;DHT22;8184;60.256;18.694;2023-07-20T07:00:40;16.50;99.90
16158;DHT22;8184;60.256;18.694;2023-07-20T07:03:09;16.40;99.90
16158;DHT22;8184;60.256;18.694;2023-07-20T07:05:37;16.50;99.90
16158;DHT22;8184;60.256;18.694;2023-07-20T07:08:09;16.40;99.90
16158;DHT22;8184;60.256;18.694;2023-07-20T07:10:37;16.50;99.90
16158;DHT22;8184;60.256;18.694;2023-07-20T07:13:05;16.50;99.90
16158;DHT22;8184;60.256;18.694;2023-07-20T07:15:34;16.50;99.90
16158;DHT22;8184;60.256;18.694;2023-07-20T07:18:11;16.70;99.90
16158;DHT22;8184;60.256;18.694;2023-07-20T07:20:51;16.60;99.90
16158;DHT22;8184;60.256;18.694;2023-07-20T07:23:22;16.60;99.90
16158;DHT22;8184;60.256;18.694;2023-07-20T07:25:51;16.70;99.90
16158;DHT22;8184;60.256;18.694;2023-07-20T07:28:19;16.80;99.90
16158;DHT22;8184;60.256;18.694;2023-07-20T07:30:49;16.80;99.90
16158;DHT22;8184;60.256;18.694;2023-07-20T07:33:17;16.90;99.90
16158;DHT22;8184;60.256;18.694;2023-07-20T07:35:46;17.00;99.90
16158;DHT22;8184;60.256;18.694;2023-07-20T07:38:14;16.90;99.90
16158;DHT22;8184;60.256;18.694;2023-07-20T07:41:02;16.90;99.90
16158;DHT22;8184;60.256;18.694;2023-07-20T07:43:30;17.10;99.90
16158;DHT22;8184;60.256;18.694;2023-07-20T07:46:00;17.30;99.90
16158;DHT22;8184;60.256;18.694;2023-07-20T07:48:28;18.00;99.90
16158;DHT22;8184;60.256;18.694;2023-07-20T07:50:59;18.40;99.90
16158;DHT22;8184;60.256;18.694;2023-07-20T07:53:28;18.30;99.90
16158;DHT22;8184;60.256;18.694;2023-07-20T07:55:56;18.50;99.90
16158;DHT22;8184;60.256;18.694;2023-07-20T07:58:25;18.60;99.90
16158;DHT22;8184;60.256;18.694;2023-07-20T08:00:53;18.80;99.90
16158;DHT22;8184;60.256;18.694;2023-07-20T08:03:23;18.80;99.90
16158;DHT22;8184;60.256;18.694;2023-07-20T08:05:53;18.90;99.90
16158;DHT22;8184;60.256;18.694;2023-07-20T08:08:22;19.00;99.90
16158;DHT22;8184;60.256;18.694;2023-07-20T08:10:54;19.30;99.90
16158;DHT22;8184;60.256;18.694;2023-07-20T08:13:22;19.30;99.90
16158;DHT22;8184;60.256;18.694;2023-07-20T08:15:51;19.50;99.90
16158;DHT22;8184;60.256;18.694;2023-07-20T08:18:19;19.70;99.90
16158;DHT22;8184;60.256;18.694;2023-07-20T08:20:50;19.80;99.90
16158;DHT22;8184;60.256;18.694;2023-07-20T08:23:19;20.10;99.90
16158;DHT22;8184;60.256;18.694;2023-07-20T08:25:47;20.00;99.90
16158;DHT22;8184;60.256;18.694;2023-07-20T08:28:15;20.00;99.90
16158;DHT22;8184;60.256;18.694;2023-07-20T08:30:44;20.20;99.90
16158;DHT22;8184;60.256;18.694;2023-07-20T08:33:13;20.20;99.90
16158;DHT22;8184;60.256;18.694;2023-07-20T08:35:42;20.30;99.90
16158;DHT22;8184;60.256;18.694;2023-07-20T08:38:12;20.00;99.90
16158;DHT22;8184;60.256;18.694;2023-07-20T08:40:41;20.40;99.90
16158;DHT22;8184;60.256;18.694;2023-07-20T08:43:10;20.40;99.90
16158;DHT22;8184;60.256;18.694;2023-07-20T08:45:39;20.50;99.90
16158;DHT22;8184;60.256;18.694;2023-07-20T08:48:08;20.50;99.90
16158;DHT22;8184;60.256;18.694;2023-07-20T08:50:36;20.50;99.90
16158;DHT22;8184;60.256;18.694;2023-07-20T08:53:04;20.50;99.90
16158;DHT22;8184;60.256;18.694;2023-07-20T08:55:37;20.20;99.90
16158;DHT22;8184;60.256;18.694;2023-07-20T08:58:05;20.30;99.90
16158;DHT22;8184;60.256;18.694;2023-07-20T09:00:36;20.70;99.90
16158;DHT22;8184;60.256;18.694;2023-07-20T09:03:08;20.70;99.90
16158;DHT22;8184;60.256;18.694;2023-07-20T09:05:37;20.70;99.90
16158;DHT22;8184;60.256;18.694;2023-07-20T09:08:07;20.90;99.90
16158;DHT22;8184;60.256;18.694;2023-07-20T09:10:37;20.90;99.90
16158;DHT22;8184;60.256;18.694;2023-07-20T09:13:08;20.90;99.90
16158;DHT22;8184;60.256;18.694;2023-07-20T09:15:36;21.10;99.90
16158;DHT22;8184;60.256;18.694;2023-07-20T09:18:04;20.90;99.90
16158;DHT22;8184;60.256;18.694;2023-07-20T09:20:33;21.10;99.90
16158;DHT22;8184;60.256;18.694;2023-07-20T09:23:04;21.20;99.90
16158;DHT22;8184;60.256;18.694;2023-07-20T09:25:33;21.60;99.90
16158;DHT22;8184;60.256;18.694;2023-07-20T09:28:04;21.80;99.90
16158;DHT22;8184;60.256;18.694;2023-07-20T09:30:32;21.50;99.90
16158;DHT22;8184;60.256;18.694;2023-07-20T09:33:00;21.70;99.90
16158;DHT22;8184;60.256;18.694;2023-07-20T09:35:29;21.90;99.90
16158;DHT22;8184;60.256;18.694;2023-07-20T09:38:09;22.00;99.90
16158;DHT22;8184;60.256;18.694;2023-07-20T09:40:40;21.50;99.90
16158;DHT22;8184;60.256;18.694;2023-07-20T09:43:13;21.40;99.90
16158;DHT22;8184;60.256;18.694;2023-07-20T09:45:46;21.10;99.90
16158;DHT22;8184;60.256;18.694;2023-07-20T09:48:18;21.20;99.90
16158;DHT22;8184;60.256;18.694;2023-07-20T09:50:52;21.60;99.90
16158;DHT22;8184;60.256;18.694;2023-07-20T09:53:20;22.00;99.90
16158;DHT22;8184;60.256;18.694;2023-07-20T09:55:48;22.50;99.90
16158;DHT22;8184;60.256;18.694;2023-07-20T09:58:18;22.40;99.90
16158;DHT22;8184;60.256;18.694;2023-07-20T10:00:46;22.80;99.90
16158;DHT22;8184;60.256;18.694;2023-07-20T10:03:21;23.00;99.90
16158;DHT22;8184;60.256;18.694;2023-07-20T10:05:51;22.30;99.90
16158;DHT22;8184;60.256;18.694;2023-07-20T10:08:20;22.30;99.90
16158;DHT22;8184;60.256;18.694;2023-07-20T10:10:54;21.60;99.90
16158;DHT22;8184;60.256;18.694;2023-07-20T10:13:26;21.30;99.90
16158;DHT22;8184;60.256;18.694;2023-07-20T10:15:57;20.90;99.90
16158;DHT22;8184;60.256;18.694;2023-07-20T10:18:28;21.50;99.90
16158;DHT22;8184;60.256;18.694;2023-07-20T10:20:58;20.80;99.90
16158;DHT22;8184;60.256;18.694;2023-07-20T10:23:30;21.30;99.90
16158;DHT22;8184;60.256;18.694;2023-07-20T10:25:59;21.40;99.90
16158;DHT22;8184;60.256;18.694;2023-07-20T10:28:30;21.50;99.90
16158;DHT22;8184;60.256;18.694;2023-07-20T10:30:59;21.50;99.90
16158;DHT22;8184;60.256;18.694;2023-07-20T10:33:27;21.60;99.90
16158;DHT22;8184;60.256;18.694;2023-07-20T10:35:55;21.90;99.90
16158;DHT22;8184;60.256;18.694;2023-07-20T10:41:16;22.20;99.90
16158;DHT22;8184;60.256;18.694;2023-07-20T10:43:47;22.20;99.90
16158;DHT22;8184;60.256;18.694;2023-07-20T10:46:34;22.40;99.90
16158;DHT22;8184;60.256;18.694;2023-07-20T10:49:12;22.70;99.90
16158;DHT22;8184;60.256;18.694;2023-07-20T10:51:42;23.00;99.90
16158;DHT22;8184;60.256;18.694;2023-07-20T10:56:55;23.70;99.90
16158;DHT22;8184;60.256;18.694;2023-07-20T10:59:37;23.40;99.90
16158;DHT22;8184;60.256;18.694;2023-07-20T11:02:07;23.80;99.90
16158;DHT22;8184;60.256;18.694;2023-07-20T11:04:38;23.60;99.90
16158;DHT22;8184;60.256;18.694;2023-07-20T11:07:07;22.30;99.90
16158;DHT22;8184;60.256;18.694;2023-07-20T11:09:36;22.20;99.90
16158;DHT22;8184;60.256;18.694;2023-07-20T11:12:11;22.60;99.90
16158;DHT22;8184;60.256;18.694;2023-07-20T11:14:52;23.00;99.90
16158;DHT22;8184;60.256;18.694;2023-07-20T11:17:28;23.40;99.90
16158;DHT22;8184;60.256;18.694;2023-07-20T11:20:02;23.40;99.90
16158;DHT22;8184;60.256;18.694;2023-07-20T11:22:35;23.10;99.90
16158;DHT22;8184;60.256;18.694;2023-07-20T11:25:04;23.10;99.90
16158;DHT22;8184;60.256;18.694;2023-07-20T11:27:32;22.50;99.90
16158;DHT22;8184;60.256;18.694;2023-07-20T11:30:14;21.70;99.90
16158;DHT22;8184;60.256;18.694;2023-07-20T11:32:47;21.80;99.90
16158;DHT22;8184;60.256;18.694;2023-07-20T11:35:15;21.80;99.90
16158;DHT22;8184;60.256;18.694;2023-07-20T11:37:43;21.60;99.90
16158;DHT22;8184;60.256;18.694;2023-07-20T11:40:12;21.20;99.90
16158;DHT22;8184;60.256;18.694;2023-07-20T11:42:41;20.50;99.90
16158;DHT22;8184;60.256;18.694;2023-07-20T11:45:13;20.80;99.90
16158;DHT22;8184;60.256;18.694;2023-07-20T11:47:42;20.50;99.90
16158;DHT22;8184;60.256;18.694;2023-07-20T11:50:10;20.20;99.90
16158;DHT22;8184;60.256;18.694;2023-07-20T11:52:40;20.40;99.90
16158;DHT22;8184;60.256;18.694;2023-07-20T11:55:10;20.50;99.90
16158;DHT22;8184;60.256;18.694;2023-07-20T11:57:39;20.10;99.90
16158;DHT22;8184;60.256;18.694;2023-07-20T12:00:08;20.40;99.90
16158;DHT22;8184;60.256;18.694;2023-07-20T12:02:40;20.60;99.90
16158;DHT22;8184;60.256;18.694;2023-07-20T12:05:08;20.60;99.90
16158;DHT22;8184;60.256;18.694;2023-07-20T12:07:40;20.70;99.90
16158;DHT22;8184;60.256;18.694;2023-07-20T12:10:10;20.60;99.90
16158;DHT22;8184;60.256;18.694;2023-07-20T12:12:43;21.00;99.90
16158;DHT22;8184;60.256;18.694;2023-07-20T12:15:13;20.80;99.90
16158;DHT22;8184;60.256;18.694;2023-07-20T12:17:48;21.00;99.90
16158;DHT22;8184;60.256;18.694;2023-07-20T12:20:27;21.10;99.90
16158;DHT22;8184;60.256;18.694;2023-07-20T12:22:56;21.20;99.90
16158;DHT22;8184;60.256;18.694;2023-07-20T12:25:32;20.60;99.90
16158;DHT22;8184;60.256;18.694;2023-07-20T12:28:00;20.80;99.90
16158;DHT22;8184;60.256;18.694;2023-07-20T12:30:29;20.50;99.90
16158;DHT22;8184;60.256;18.694;2023-07-20T12:32:59;20.20;99.90
16158;DHT22;8184;60.256;18.694;2023-07-20T12:35:27;20.00;99.90
16158;DHT22;8184;60.256;18.694;2023-07-20T12:37:56;20.10;99.90
16158;DHT22;8184;60.256;18.694;2023-07-20T12:40:24;20.30;99.90
16158;DHT22;8184;60.256;18.694;2023-07-20T12:42:52;20.00;99.90
16158;DHT22;8184;60.256;18.694;2023-07-20T12:45:23;20.00;99.90
16158;DHT22;8184;60.256;18.694;2023-07-20T12:47:54;20.20;99.90
16158;DHT22;8184;60.256;18.694;2023-07-20T12:50:24;20.10;99.90
16158;DHT22;8184;60.256;18.694;2023-07-20T12:52:55;19.80;99.90
16158;DHT22;8184;60.256;18.694;2023-07-20T12:55:23;19.20;99.90
16158;DHT22;8184;60.256;18.694;2023-07-20T12:57:51;19.90;99.90
16158;DHT22;8184;60.256;18.694;2023-07-20T13:00:19;19.80;99.90
16158;DHT22;8184;60.256;18.694;2023-07-20T13:02:48;19.60;99.90
16158;DHT22;8184;60.256;18.694;2023-07-20T13:05:34;19.50;99.90
16158;DHT22;8184;60.256;18.694;2023-07-20T13:08:05;18.20;99.90
16158;DHT22;8184;60.256;18.694;2023-07-20T13:10:36;18.30;99.90
16158;DHT22;8184;60.256;18.694;2023-07-20T13:13:05;18.70;99.90
16158;DHT22;8184;60.256;18.694;2023-07-20T13:15:40;18.70;99.90
16158;DHT22;8184;60.256;18.694;2023-07-20T13:18:09;18.00;99.90
16158;DHT22;8184;60.256;18.694;2023-07-20T13:20:39;17.70;99.90
16158;DHT22;8184;60.256;18.694;2023-07-20T13:23:08;17.70;99.90
16158;DHT22;8184;60.256;18.694;2023-07-20T13:25:36;18.20;99.90
16158;DHT22;8184;60.256;18.694;2023-07-20T13:28:05;18.60;99.90
16158;DHT22;8184;60.256;18.694;2023-07-20T13:30:34;18.50;99.90
16158;DHT22;8184;60.256;18.694;2023-07-20T13:33:06;18.50;99.90
16158;DHT22;8184;60.256;18.694;2023-07-20T13:35:40;18.40;99.90
16158;DHT22;8184;60.256;18.694;2023-07-20T13:38:11;18.50;99.90
16158;DHT22;8184;60.256;18.694;2023-07-20T13:40:39;18.60;99.90
16158;DHT22;8184;60.256;18.694;2023-07-20T13:43:12;18.40;99.90
16158;DHT22;8184;60.256;18.694;2023-07-20T13:45:40;18.30;99.90
16158;DHT22;8184;60.256;18.694;2023-07-20T13:48:08;18.40;99.90
16158;DHT22;8184;60.256;18.694;2023-07-20T13:50:37;18.20;99.90
16158;DHT22;8184;60.256;18.694;2023-07-20T13:53:09;18.40;99.90
16158;DHT22;8184;60.256;18.694;2023-07-20T13:55:40;18.50;99.90
16158;DHT22;8184;60.256;18.694;2023-07-20T13:58:12;18.50;99.90
16158;DHT22;8184;60.256;18.694;2023-07-20T14:00:45;18.50;99.90
16158;DHT22;8184;60.256;18.694;2023-07-20T14:03:18;18.50;99.90
16158;DHT22;8184;60.256;18.694;2023-07-20T14:05:49;18.60;99.90
16158;DHT22;8184;60.256;18.694;2023-07-20T14:08:23;18.50;99.90
16158;DHT22;8184;60.256;18.694;2023-07-20T14:10:52;18.40;99.90
16158;DHT22;8184;60.256;18.694;2023-07-20T14:13:26;18.20;99.90
16158;DHT22;8184;60.256;18.694;2023-07-20T14:16:13;18.20;99.90
16158;DHT22;8184;60.256;18.694;2023-07-20T14:18:41;18.20;99.90
16158;DHT22;8184;60.256;18.694;2023-07-20T14:21:15;18.00;99.90
16158;DHT22;8184;60.256;18.694;2023-07-20T14:23:46;18.00;99.90
16158;DHT22;8184;60.256;18.694;2023-07-20T14:26:28;18.00;99.90
16158;DHT22;8184;60.256;18.694;2023-07-20T14:29:09;18.10;99.90
16158;DHT22;8184;60.256;18.694;2023-07-20T14:31:37;18.30;99.90
16158;DHT22;8184;60.256;18.694;2023-07-20T14:34:06;18.40;99.90
16158;DHT22;8184;60.256;18.694;2023-07-20T14:36:34;18.00;99.90
16158;DHT22;8184;60.256;18.694;2023-07-20T14:39:08;18.00;99.90
16158;DHT22;8184;60.256;18.694;2023-07-20T14:41:36;18.20;99.90
16158;DHT22;8184;60.256;18.694;2023-07-20T14:44:06;18.20;99.90
16158;DHT22;8184;60.256;18.694;2023-07-20T14:46:35;18.40;99.90
16158;DHT22;8184;60.256;18.694;2023-07-20T14:49:05;18.40;99.90
16158;DHT22;8184;60.256;18.694;2023-07-20T14:51:36;18.50;99.90
16158;DHT22;8184;60.256;18.694;2023-07-20T14:54:12;19.50;99.90
16158;DHT22;8184;60.256;18.694;2023-07-20T14:56:48;18.60;99.90
16158;DHT22;8184;60.256;18.694;2023-07-20T14:59:16;18.50;99.90
16158;DHT22;8184;60.256;18.694;2023-07-20T15:01:45;18.60;99.90
16158;DHT22;8184;60.256;18.694;2023-07-20T15:04:19;18.40;99.90
16158;DHT22;8184;60.256;18.694;2023-07-20T15:06:50;18.20;99.90
16158;DHT22;8184;60.256;18.694;2023-07-20T15:09:24;18.10;99.90
16158;DHT22;8184;60.256;18.694;2023-07-20T15:11:53;18.40;99.90
16158;DHT22;8184;60.256;18.694;2023-07-20T15:14:21;18.60;99.90
16158;DHT22;8184;60.256;18.694;2023-07-20T15:16:49;18.30;99.90
16158;DHT22;8184;60.256;18.694;2023-07-20T15:19:18;18.60;99.90
16158;DHT22;8184;60.256;18.694;2023-07-20T15:21:46;18.70;99.90
16158;DHT22;8184;60.256;18.694;2023-07-20T15:24:14;19.20;99.90
16158;DHT22;8184;60.256;18.694;2023-07-20T15:26:44;19.60;99.90
16158;DHT22;8184;60.256;18.694;2023-07-20T15:29:12;19.70;99.90
16158;DHT22;8184;60.256;18.694;2023-07-20T15:31:43;20.20;99.90
16158;DHT22;8184;60.256;18.694;2023-07-20T15:34:14;20.60;99.90
16158;DHT22;8184;60.256;18.694;2023-07-20T15:36:42;20.70;99.90
16158;DHT22;8184;60.256;18.694;2023-07-20T15:39:12;20.80;99.90
16158;DHT22;8184;60.256;18.694;2023-07-20T15:41:40;20.90;99.90
16158;DHT22;8184;60.256;18.694;2023-07-20T15:44:09;21.30;99.90
16158;DHT22;8184;60.256;18.694;2023-07-20T15:46:43;21.20;99.90
16158;DHT22;8184;60.256;18.694;2023-07-20T15:49:15;20.90;99.90
16158;DHT22;8184;60.256;18.694;2023-07-20T15:51:43;20.90;99.90
16158;DHT22;8184;60.256;18.694;2023-07-20T15:54:13;21.20;99.90
16158;DHT22;8184;60.256;18.694;2023-07-20T15:56:42;21.50;99.90
16158;DHT22;8184;60.256;18.694;2023-07-20T15:59:12;21.70;99.90
16158;DHT22;8184;60.256;18.694;2023-07-20T16:01:41;21.90;99.90